Vega Leader — H3NW — position and weather

sailwx.info

Track history (hours):
 
Tides and Currents Weather Stations Pressure Air Temp Water Temp Dewpoint Dewpoint Depression Visibility Wind Speed Wind Dir Waves Ship Positions

Vega Leader

Last reported at 2017-Dec-17 00:20 UTC. Time now 2017-Dec-18 14:59 UTC.
Position N 37°44' W 000°22'.

Length 180 m; draft 9.1 m.

Type: Cargo ship. MMSI: 355948000.

Date/timePositionNaut miles runAvg speedWind from/ knotsBaromVisibWave heightAir tempDewpointWater temp
2017-Dec-17 00:20N 37°44' W 000°22'515.4
2017-Dec-17 00:01N 37°40' W 000°25'815.4
2017-Dec-16 23:31N 37°34' W 000°31'815.4
2017-Dec-16 23:00N 37°28' W 000°38'815.3
2017-Dec-16 22:31N 37°23' W 000°45'1415.1
2017-Dec-16 21:34N 37°13' W 000°58'114.9
2017-Dec-16 21:28N 37°12' W 000°59'21515.0
2017-Dec-16 07:07N 36°01' W 005°11'218.6
2017-Dec-16 07:01N 36°01' W 005°14'1019.5
2017-Dec-16 06:30N 35°58' W 005°25'25213.8
2017-Dec-15 12:16N 38°09' W 009°55'515.8
2017-Dec-15 11:58N 38°13' W 009°56'715.9
2017-Dec-15 11:30N 38°20' W 009°59'816.1
2017-Dec-15 11:00N 38°28' W 010°02'815.9
2017-Dec-15 10:30N 38°36' W 010°05'816.4
2017-Dec-15 10:00N 38°44' W 010°06'816.0
2017-Dec-15 09:30N 38°52' W 010°07'815.4
2017-Dec-15 09:01N 38°59' W 010°06'816.1
2017-Dec-15 08:30N 39°08' W 010°06'815.8
2017-Dec-15 08:00N 39°15' W 010°06'816.1
2017-Dec-15 07:30N 39°24' W 010°06'  
2017-Dec-12 11:19N 50°22' W 005°58'413.0
2017-Dec-12 11:00N 50°24' W 005°54'713.2
2017-Dec-12 10:30N 50°29' W 005°46'713.4
2017-Dec-12 10:00N 50°33' W 005°38'713.5
2017-Dec-12 09:30N 50°37' W 005°29'713.7
2017-Dec-12 09:00N 50°42' W 005°21'815.1
2017-Dec-12 08:30N 50°46' W 005°12'714.3
2017-Dec-12 08:00N 50°51' W 005°03'714.2
2017-Dec-12 07:30N 50°55' W 004°54'714.4
2017-Dec-12 07:00N 50°60' W 004°45'815.1
2017-Dec-12 06:30N 51°05' W 004°36'815.0
2017-Dec-12 06:00N 51°09' W 004°27'816.2
2017-Dec-12 05:30N 51°15' W 004°17'815.7
2017-Dec-12 05:00N 51°19' W 004°06'917.0
2017-Dec-12 04:30N 51°20' W 003°53'816.9
2017-Dec-12 04:00N 51°20' W 003°39'1017.2
2017-Dec-12 03:26N 51°21' W 003°24'615.0
2017-Dec-12 03:01N 51°21' W 003°13'611.8
2017-Dec-12 02:31N 51°23' W 003°05'714.3
2017-Dec-12 02:00N 51°28' W 002°55'713.2
2017-Dec-12 01:30N 51°30' W 002°46'1 2.4
2017-Dec-12 00:59N 51°30' W 002°44'0 0.9
2017-Dec-12 00:30N 51°30' W 002°43'0 0.1
2017-Dec-11 23:58N 51°30' W 002°43'0 0.0
2017-Dec-11 23:28N 51°30' W 002°43'0 0.0
2017-Dec-11 22:58N 51°30' W 002°43'0 0.0
2017-Dec-11 22:28N 51°30' W 002°43'0 0.0
2017-Dec-11 21:58N 51°30' W 002°43'0 0.0
2017-Dec-11 21:28N 51°30' W 002°43'0 0.0
2017-Dec-11 20:58N 51°30' W 002°43'0 0.0
2017-Dec-11 20:28N 51°30' W 002°43'0 0.0
2017-Dec-11 19:58N 51°30' W 002°43'0 0.0
2017-Dec-11 19:28N 51°30' W 002°43'0 0.0
2017-Dec-11 18:58N 51°30' W 002°43'0 0.0
2017-Dec-11 18:28N 51°30' W 002°43'0 0.0
2017-Dec-11 17:58N 51°30' W 002°43'0 0.0
2017-Dec-11 17:28N 51°30' W 002°43'0 0.0
2017-Dec-11 16:58N 51°30' W 002°43'0 0.0
2017-Dec-11 16:28N 51°30' W 002°43'0 0.0
2017-Dec-11 15:58N 51°30' W 002°43'0 0.0
2017-Dec-11 15:28N 51°30' W 002°43'0 0.0
2017-Dec-11 14:58N 51°30' W 002°43'0 0.0
2017-Dec-11 14:28N 51°30' W 002°43'0 0.0
2017-Dec-11 13:52N 51°30' W 002°43'0 0.0
2017-Dec-11 13:28N 51°30' W 002°43'0 0.0
2017-Dec-11 12:58N 51°30' W 002°43'0 0.0
2017-Dec-11 12:28N 51°30' W 002°43'0 0.0
2017-Dec-11 11:58N 51°30' W 002°43'0 0.0
2017-Dec-11 11:28N 51°30' W 002°43'0 0.0
2017-Dec-11 10:58N 51°30' W 002°43'0 0.0
2017-Dec-11 10:28N 51°30' W 002°43'0 0.0
2017-Dec-11 09:58N 51°30' W 002°43'0 0.0
2017-Dec-11 09:28N 51°30' W 002°43'0 0.0
2017-Dec-11 08:58N 51°30' W 002°43'0 0.0
2017-Dec-11 08:28N 51°30' W 002°43'0 0.0
2017-Dec-11 07:58N 51°30' W 002°43'0 0.0
2017-Dec-11 07:28N 51°30' W 002°43'0 0.0
2017-Dec-11 06:58N 51°30' W 002°43'0 0.0
2017-Dec-11 06:28N 51°30' W 002°43'0 0.0
2017-Dec-11 05:58N 51°30' W 002°43'0 0.0
2017-Dec-11 05:28N 51°30' W 002°43'0 0.0
2017-Dec-11 04:58N 51°30' W 002°43'0 0.0
2017-Dec-11 04:28N 51°30' W 002°43'0 0.0
2017-Dec-11 03:58N 51°30' W 002°43'0 0.0
2017-Dec-11 03:28N 51°30' W 002°43'0 0.0
2017-Dec-11 02:58N 51°30' W 002°43'0 0.0
2017-Dec-11 02:30N 51°30' W 002°43'0 0.8
2017-Dec-11 01:59N 51°30' W 002°43'0 0.2
2017-Dec-11 01:30N 51°30' W 002°44'1 2.3
2017-Dec-11 01:01N 51°30' W 002°45'611.4
2017-Dec-11 00:30N 51°28' W 002°54'815.1
2017-Dec-11 00:00N 51°24' W 003°04'714.9
2017-Dec-10 23:30N 51°21' W 003°15'1212.3
2017-Dec-10 22:33N 51°21' W 003°34'117.3
2017-Dec-10 22:30N 51°21' W 003°35'917.5
2017-Dec-10 22:00N 51°20' W 003°49'917.3
2017-Dec-10 21:29N 51°19' W 004°04'816.8
2017-Dec-10 21:00N 51°16' W 004°15'917.5
2017-Dec-10 20:30N 51°10' W 004°25'917.3
2017-Dec-10 20:00N 51°04' W 004°35'817.0
2017-Dec-10 19:30N 50°58' W 004°45'816.3
2017-Dec-10 19:00N 50°53' W 004°55'816.0
2017-Dec-10 18:30N 50°48' W 005°04'816.0
2017-Dec-10 18:00N 50°42' W 005°14'815.9
2017-Dec-10 17:30N 50°37' W 005°23'815.6
2017-Dec-10 17:00N 50°32' W 005°32'815.4
2017-Dec-10 16:30N 50°27' W 005°41'714.9
2017-Dec-10 16:00N 50°22' W 005°50'611.6
2017-Dec-10 15:30N 50°16' W 005°52'612.3
2017-Dec-10 15:01N 50°10' W 005°54'812.0
2017-Dec-10 14:21N 50°02' W 005°53'14 9.3
2017-Dec-10 12:49N 49°52' W 005°37'15 6.4
2017-Dec-10 10:31N 49°50' W 005°15'1 6.7
2017-Dec-10 10:19N 49°50' W 005°13'2 4.8
2017-Dec-10 09:55N 49°50' W 005°10'5 4.6
2017-Dec-10 08:47N 49°50' W 005°02'5 6.0
2017-Dec-10 07:57N 49°51' W 004°54'4 9.6
2017-Dec-10 07:30N 49°51' W 004°47'611.2
2017-Dec-10 07:00N 49°52' W 004°39'612.0
2017-Dec-10 06:30N 49°52' W 004°30'612.9
2017-Dec-10 06:00N 49°53' W 004°20'713.9
2017-Dec-10 05:30N 49°54' W 004°09'814.4
2017-Dec-10 04:58N 49°55' W 003°57'715.8
2017-Dec-10 04:31N 49°55' W 003°46'815.4
2017-Dec-10 04:01N 49°57' W 003°34'714.4
2017-Dec-10 03:31N 49°58' W 003°23'815.8
2017-Dec-10 03:01N 49°59' W 003°11'815.3
2017-Dec-10 02:31N 49°60' W 002°59'814.8
2017-Dec-10 01:59N 50°01' W 002°47'714.5
2017-Dec-10 01:31N 50°03' W 002°37'4814.0
2017-Dec-09 22:04N 50°15' W 001°24'3717.2
2017-Dec-09 19:55N 50°25' W 000°28'717.9
2017-Dec-09 19:30N 50°27' W 000°17'917.6
2017-Dec-09 19:01N 50°29' W 000°03'917.3
2017-Dec-09 18:31N 50°31' E 000°10'917.1
2017-Dec-09 18:01N 50°33' E 000°23'816.5
2017-Dec-09 17:30N 50°36' E 000°35'816.1
2017-Dec-09 17:00N 50°40' E 000°46'815.7
2017-Dec-09 16:30N 50°44' E 000°56'815.0
2017-Dec-09 16:00N 50°48' E 001°06'714.5
2017-Dec-09 15:30N 50°53' E 001°16'714.3
2017-Dec-09 15:00N 50°58' E 001°23'815.1
2017-Dec-09 14:31N 51°04' E 001°31'815.7
2017-Dec-09 14:00N 51°09' E 001°40'816.7
2017-Dec-09 13:31N 51°15' E 001°49'917.4
2017-Dec-09 13:00N 51°22' E 001°57'713.2
2017-Dec-09 12:31N 51°23' E 002°07'815.3
2017-Dec-09 12:00N 51°20' E 002°19'916.6
2017-Dec-09 11:26N 51°23' E 002°33'713.6
2017-Dec-09 10:55N 51°22' E 002°44'511.8
2017-Dec-09 10:30N 51°25' E 002°51'815.4
2017-Dec-09 10:00N 51°25' E 003°04'612.9
2017-Dec-09 09:31N 51°21' E 003°12'1 2.1
2017-Dec-09 08:59N 51°20' E 003°13'0 0.0
2017-Dec-09 08:29N 51°20' E 003°13'1 2.0
2017-Dec-09 08:00N 51°19' E 003°13'1 1.4
2017-Dec-09 07:29N 51°18' E 003°14'0 0.0
2017-Dec-09 06:59N 51°18' E 003°14'0 0.0
2017-Dec-09 06:29N 51°18' E 003°14'0 0.0
2017-Dec-09 05:59N 51°18' E 003°14'0 0.0
2017-Dec-09 05:29N 51°18' E 003°14'0 0.0
2017-Dec-09 04:59N 51°18' E 003°14'0 0.0
2017-Dec-09 04:29N 51°18' E 003°14'0 0.0
2017-Dec-09 03:56N 51°18' E 003°14'0 0.0
2017-Dec-09 03:29N 51°18' E 003°14'0 0.0
2017-Dec-09 02:59N 51°18' E 003°14'0 0.0
2017-Dec-09 02:29N 51°18' E 003°14'0 0.0
2017-Dec-09 01:59N 51°18' E 003°14'0 0.0
2017-Dec-09 01:29N 51°18' E 003°14'0 0.0
2017-Dec-09 00:59N 51°18' E 003°14'0 0.0
2017-Dec-09 00:29N 51°18' E 003°14'0 0.0
2017-Dec-08 23:59N 51°18' E 003°14'0 0.0
2017-Dec-08 23:29N 51°18' E 003°14'0 0.0
2017-Dec-08 22:59N 51°18' E 003°14'0 0.0
2017-Dec-08 22:29N 51°18' E 003°14'0 0.0
2017-Dec-08 21:59N 51°18' E 003°14'0 0.0
2017-Dec-08 21:29N 51°18' E 003°14'0 0.0
2017-Dec-08 20:59N 51°18' E 003°14'0 0.0
2017-Dec-08 20:29N 51°18' E 003°14'0 0.0
2017-Dec-08 19:59N 51°18' E 003°14'0 0.0
2017-Dec-08 19:29N 51°18' E 003°14'0 0.0
2017-Dec-08 18:59N 51°18' E 003°14'0 0.0
2017-Dec-08 18:29N 51°18' E 003°14'0 0.0
2017-Dec-08 17:59N 51°18' E 003°14'0 0.0
2017-Dec-08 17:29N 51°18' E 003°14'0 0.0
2017-Dec-08 16:59N 51°18' E 003°14'0 0.0
2017-Dec-08 16:29N 51°18' E 003°14'0 0.0
2017-Dec-08 15:59N 51°18' E 003°14'0 0.0
2017-Dec-08 15:29N 51°18' E 003°14'0 0.0
2017-Dec-08 14:59N 51°18' E 003°14'0 0.5
2017-Dec-08 14:30N 51°18' E 003°14'0 0.5
2017-Dec-08 13:58N 51°18' E 003°14'0 0.0
2017-Dec-08 13:28N 51°18' E 003°14'0 0.0
2017-Dec-08 12:58N 51°18' E 003°14'0 0.0
2017-Dec-08 12:25N 51°18' E 003°14'0 0.0
2017-Dec-08 11:58N 51°18' E 003°14'0 0.0
2017-Dec-08 11:28N 51°18' E 003°14'0 0.0
2017-Dec-08 10:58N 51°18' E 003°14'0 0.0
2017-Dec-08 10:28N 51°18' E 003°14'0 0.0
2017-Dec-08 09:58N 51°18' E 003°14'0 0.0
2017-Dec-08 09:28N 51°18' E 003°14'0 0.0
2017-Dec-08 08:58N 51°18' E 003°14'0 0.0
2017-Dec-08 08:28N 51°18' E 003°14'0 0.0
2017-Dec-08 07:58N 51°18' E 003°14'0 0.0
2017-Dec-08 07:25N 51°18' E 003°14'0 0.0
2017-Dec-08 06:58N 51°18' E 003°14'0 0.0
2017-Dec-08 06:28N 51°18' E 003°14'0 0.0
2017-Dec-08 05:58N 51°18' E 003°14'0 0.0
2017-Dec-08 05:28N 51°18' E 003°14'0 0.0
2017-Dec-08 04:58N 51°18' E 003°14'0 0.0
2017-Dec-08 04:28N 51°18' E 003°14'0 0.0
2017-Dec-08 03:58N 51°18' E 003°14'0 0.0
2017-Dec-08 03:28N 51°18' E 003°14'0 0.0
2017-Dec-08 02:58N 51°18' E 003°14'0 0.0
2017-Dec-08 02:28N 51°18' E 003°14'0 0.0
2017-Dec-08 01:58N 51°18' E 003°14'0 0.0
2017-Dec-08 01:28N 51°18' E 003°14'0 0.0
2017-Dec-08 00:58N 51°18' E 003°14'0 0.0
2017-Dec-08 00:28N 51°18' E 003°14'0 0.0
2017-Dec-07 23:58N 51°18' E 003°14'0 0.0
2017-Dec-07 23:28N 51°18' E 003°14'0 0.0
2017-Dec-07 22:58N 51°18' E 003°14'0 0.0
2017-Dec-07 22:28N 51°18' E 003°14'0 0.0
2017-Dec-07 21:58N 51°18' E 003°14'0 0.0
2017-Dec-07 21:28N 51°18' E 003°14'0 0.0
2017-Dec-07 20:58N 51°18' E 003°14'0 0.0
2017-Dec-07 20:28N 51°18' E 003°14'0 0.0
2017-Dec-07 19:58N 51°18' E 003°14'0 0.0
2017-Dec-07 19:28N 51°18' E 003°14'0 0.0
2017-Dec-07 18:58N 51°18' E 003°14'0 0.0
2017-Dec-07 18:28N 51°18' E 003°14'0 0.0
2017-Dec-07 17:58N 51°18' E 003°14'0 0.2
2017-Dec-07 17:31N 51°18' E 003°14'2 4.0
2017-Dec-07 16:58N 51°20' E 003°13'0 0.0
2017-Dec-07 16:30N 51°20' E 003°13'2 3.9
2017-Dec-07 16:00N 51°22' E 003°12'611.6
2017-Dec-07 15:31N 51°24' E 003°03'816.7
2017-Dec-07 15:01N 51°22' E 002°51'612.3
2017-Dec-07 14:30N 51°22' E 002°41'510.3
2017-Dec-07 14:00N 51°24' E 002°33'14 9.7
2017-Dec-07 12:33N 51°37' E 002°39'8511.1
2017-Dec-07 04:56N 52°50' E 003°49'512.0
2017-Dec-07 04:30N 52°54' E 003°55'612.6
2017-Dec-07 04:00N 52°58' E 004°02'713.3
2017-Dec-07 03:27N 53°03' E 004°12'3513.5
2017-Dec-07 00:54N 53°31' E 004°46'714.5
2017-Dec-07 00:26N 53°33' E 004°56'  
Track history (hours):
 
Tides and Currents Weather Stations Pressure Air Temp Water Temp Dewpoint Dewpoint Depression Visibility Wind Speed Wind Dir Waves Ship Positions

Vega Leader

Last reported at 2017-Dec-17 00:20 UTC. Time now 2017-Dec-18 14:59 UTC.
Position N 37°44' W 000°22'.

Length 180 m; draft 9.1 m.

Type: Cargo ship. MMSI: 355948000.

Date/timePositionNaut miles runAvg speedWind from/ knotsBaromVisibWave heightAir tempDewpointWater temp
2017-Dec-17 00:20N 37°44' W 000°22'515.4
2017-Dec-17 00:01N 37°40' W 000°25'815.4
2017-Dec-16 23:31N 37°34' W 000°31'815.4
2017-Dec-16 23:00N 37°28' W 000°38'815.3
2017-Dec-16 22:31N 37°23' W 000°45'1415.1
2017-Dec-16 21:34N 37°13' W 000°58'114.9
2017-Dec-16 21:28N 37°12' W 000°59'21515.0
2017-Dec-16 07:07N 36°01' W 005°11'218.6
2017-Dec-16 07:01N 36°01' W 005°14'1019.5
2017-Dec-16 06:30N 35°58' W 005°25'25213.8
2017-Dec-15 12:16N 38°09' W 009°55'515.8
2017-Dec-15 11:58N 38°13' W 009°56'715.9
2017-Dec-15 11:30N 38°20' W 009°59'816.1
2017-Dec-15 11:00N 38°28' W 010°02'815.9
2017-Dec-15 10:30N 38°36' W 010°05'816.4
2017-Dec-15 10:00N 38°44' W 010°06'816.0
2017-Dec-15 09:30N 38°52' W 010°07'815.4
2017-Dec-15 09:01N 38°59' W 010°06'816.1
2017-Dec-15 08:30N 39°08' W 010°06'815.8
2017-Dec-15 08:00N 39°15' W 010°06'816.1
2017-Dec-15 07:30N 39°24' W 010°06'  
2017-Dec-12 11:19N 50°22' W 005°58'413.0
2017-Dec-12 11:00N 50°24' W 005°54'713.2
2017-Dec-12 10:30N 50°29' W 005°46'713.4
2017-Dec-12 10:00N 50°33' W 005°38'713.5
2017-Dec-12 09:30N 50°37' W 005°29'713.7
2017-Dec-12 09:00N 50°42' W 005°21'815.1
2017-Dec-12 08:30N 50°46' W 005°12'714.3
2017-Dec-12 08:00N 50°51' W 005°03'714.2
2017-Dec-12 07:30N 50°55' W 004°54'714.4
2017-Dec-12 07:00N 50°60' W 004°45'815.1
2017-Dec-12 06:30N 51°05' W 004°36'815.0
2017-Dec-12 06:00N 51°09' W 004°27'816.2
2017-Dec-12 05:30N 51°15' W 004°17'815.7
2017-Dec-12 05:00N 51°19' W 004°06'917.0
2017-Dec-12 04:30N 51°20' W 003°53'816.9
2017-Dec-12 04:00N 51°20' W 003°39'1017.2
2017-Dec-12 03:26N 51°21' W 003°24'615.0
2017-Dec-12 03:01N 51°21' W 003°13'611.8
2017-Dec-12 02:31N 51°23' W 003°05'714.3
2017-Dec-12 02:00N 51°28' W 002°55'713.2
2017-Dec-12 01:30N 51°30' W 002°46'1 2.4
2017-Dec-12 00:59N 51°30' W 002°44'0 0.9
2017-Dec-12 00:30N 51°30' W 002°43'0 0.1
2017-Dec-11 23:58N 51°30' W 002°43'0 0.0
2017-Dec-11 23:28N 51°30' W 002°43'0 0.0
2017-Dec-11 22:58N 51°30' W 002°43'0 0.0
2017-Dec-11 22:28N 51°30' W 002°43'0 0.0
2017-Dec-11 21:58N 51°30' W 002°43'0 0.0
2017-Dec-11 21:28N 51°30' W 002°43'0 0.0
2017-Dec-11 20:58N 51°30' W 002°43'0 0.0
2017-Dec-11 20:28N 51°30' W 002°43'0 0.0
2017-Dec-11 19:58N 51°30' W 002°43'0 0.0
2017-Dec-11 19:28N 51°30' W 002°43'0 0.0
2017-Dec-11 18:58N 51°30' W 002°43'0 0.0
2017-Dec-11 18:28N 51°30' W 002°43'0 0.0
2017-Dec-11 17:58N 51°30' W 002°43'0 0.0
2017-Dec-11 17:28N 51°30' W 002°43'0 0.0
2017-Dec-11 16:58N 51°30' W 002°43'0 0.0
2017-Dec-11 16:28N 51°30' W 002°43'0 0.0
2017-Dec-11 15:58N 51°30' W 002°43'0 0.0
2017-Dec-11 15:28N 51°30' W 002°43'0 0.0
2017-Dec-11 14:58N 51°30' W 002°43'0 0.0
2017-Dec-11 14:28N 51°30' W 002°43'0 0.0
2017-Dec-11 13:52N 51°30' W 002°43'0 0.0
2017-Dec-11 13:28N 51°30' W 002°43'0 0.0
2017-Dec-11 12:58N 51°30' W 002°43'0 0.0
2017-Dec-11 12:28N 51°30' W 002°43'0 0.0
2017-Dec-11 11:58N 51°30' W 002°43'0 0.0
2017-Dec-11 11:28N 51°30' W 002°43'0 0.0
2017-Dec-11 10:58N 51°30' W 002°43'0 0.0
2017-Dec-11 10:28N 51°30' W 002°43'0 0.0
2017-Dec-11 09:58N 51°30' W 002°43'0 0.0
2017-Dec-11 09:28N 51°30' W 002°43'0 0.0
2017-Dec-11 08:58N 51°30' W 002°43'0 0.0
2017-Dec-11 08:28N 51°30' W 002°43'0 0.0
2017-Dec-11 07:58N 51°30' W 002°43'0 0.0
2017-Dec-11 07:28N 51°30' W 002°43'0 0.0
2017-Dec-11 06:58N 51°30' W 002°43'0 0.0
2017-Dec-11 06:28N 51°30' W 002°43'0 0.0
2017-Dec-11 05:58N 51°30' W 002°43'0 0.0
2017-Dec-11 05:28N 51°30' W 002°43'0 0.0
2017-Dec-11 04:58N 51°30' W 002°43'0 0.0
2017-Dec-11 04:28N 51°30' W 002°43'0 0.0
2017-Dec-11 03:58N 51°30' W 002°43'0 0.0
2017-Dec-11 03:28N 51°30' W 002°43'0 0.0
2017-Dec-11 02:58N 51°30' W 002°43'0 0.0
2017-Dec-11 02:30N 51°30' W 002°43'0 0.8
2017-Dec-11 01:59N 51°30' W 002°43'0 0.2
2017-Dec-11 01:30N 51°30' W 002°44'1 2.3
2017-Dec-11 01:01N 51°30' W 002°45'611.4
2017-Dec-11 00:30N 51°28' W 002°54'815.1
2017-Dec-11 00:00N 51°24' W 003°04'714.9
2017-Dec-10 23:30N 51°21' W 003°15'1212.3
2017-Dec-10 22:33N 51°21' W 003°34'117.3
2017-Dec-10 22:30N 51°21' W 003°35'917.5
2017-Dec-10 22:00N 51°20' W 003°49'917.3
2017-Dec-10 21:29N 51°19' W 004°04'816.8
2017-Dec-10 21:00N 51°16' W 004°15'917.5
2017-Dec-10 20:30N 51°10' W 004°25'917.3
2017-Dec-10 20:00N 51°04' W 004°35'817.0
2017-Dec-10 19:30N 50°58' W 004°45'816.3
2017-Dec-10 19:00N 50°53' W 004°55'816.0
2017-Dec-10 18:30N 50°48' W 005°04'816.0
2017-Dec-10 18:00N 50°42' W 005°14'815.9
2017-Dec-10 17:30N 50°37' W 005°23'815.6
2017-Dec-10 17:00N 50°32' W 005°32'815.4
2017-Dec-10 16:30N 50°27' W 005°41'714.9
2017-Dec-10 16:00N 50°22' W 005°50'611.6
2017-Dec-10 15:30N 50°16' W 005°52'612.3
2017-Dec-10 15:01N 50°10' W 005°54'812.0
2017-Dec-10 14:21N 50°02' W 005°53'14 9.3
2017-Dec-10 12:49N 49°52' W 005°37'15 6.4
2017-Dec-10 10:31N 49°50' W 005°15'1 6.7
2017-Dec-10 10:19N 49°50' W 005°13'2 4.8
2017-Dec-10 09:55N 49°50' W 005°10'5 4.6
2017-Dec-10 08:47N 49°50' W 005°02'5 6.0
2017-Dec-10 07:57N 49°51' W 004°54'4 9.6
2017-Dec-10 07:30N 49°51' W 004°47'611.2
2017-Dec-10 07:00N 49°52' W 004°39'612.0
2017-Dec-10 06:30N 49°52' W 004°30'612.9
2017-Dec-10 06:00N 49°53' W 004°20'713.9
2017-Dec-10 05:30N 49°54' W 004°09'814.4
2017-Dec-10 04:58N 49°55' W 003°57'715.8
2017-Dec-10 04:31N 49°55' W 003°46'815.4
2017-Dec-10 04:01N 49°57' W 003°34'714.4
2017-Dec-10 03:31N 49°58' W 003°23'815.8
2017-Dec-10 03:01N 49°59' W 003°11'815.3
2017-Dec-10 02:31N 49°60' W 002°59'814.8
2017-Dec-10 01:59N 50°01' W 002°47'714.5
2017-Dec-10 01:31N 50°03' W 002°37'4814.0
2017-Dec-09 22:04N 50°15' W 001°24'3717.2
2017-Dec-09 19:55N 50°25' W 000°28'717.9
2017-Dec-09 19:30N 50°27' W 000°17'917.6
2017-Dec-09 19:01N 50°29' W 000°03'917.3
2017-Dec-09 18:31N 50°31' E 000°10'917.1
2017-Dec-09 18:01N 50°33' E 000°23'816.5
2017-Dec-09 17:30N 50°36' E 000°35'816.1
2017-Dec-09 17:00N 50°40' E 000°46'815.7
2017-Dec-09 16:30N 50°44' E 000°56'815.0
2017-Dec-09 16:00N 50°48' E 001°06'714.5
2017-Dec-09 15:30N 50°53' E 001°16'714.3
2017-Dec-09 15:00N 50°58' E 001°23'815.1
2017-Dec-09 14:31N 51°04' E 001°31'815.7
2017-Dec-09 14:00N 51°09' E 001°40'816.7
2017-Dec-09 13:31N 51°15' E 001°49'917.4
2017-Dec-09 13:00N 51°22' E 001°57'713.2
2017-Dec-09 12:31N 51°23' E 002°07'815.3
2017-Dec-09 12:00N 51°20' E 002°19'916.6
2017-Dec-09 11:26N 51°23' E 002°33'713.6
2017-Dec-09 10:55N 51°22' E 002°44'511.8
2017-Dec-09 10:30N 51°25' E 002°51'815.4
2017-Dec-09 10:00N 51°25' E 003°04'612.9
2017-Dec-09 09:31N 51°21' E 003°12'1 2.1
2017-Dec-09 08:59N 51°20' E 003°13'0 0.0
2017-Dec-09 08:29N 51°20' E 003°13'1 2.0
2017-Dec-09 08:00N 51°19' E 003°13'1 1.4
2017-Dec-09 07:29N 51°18' E 003°14'0 0.0
2017-Dec-09 06:59N 51°18' E 003°14'0 0.0
2017-Dec-09 06:29N 51°18' E 003°14'0 0.0
2017-Dec-09 05:59N 51°18' E 003°14'0 0.0
2017-Dec-09 05:29N 51°18' E 003°14'0 0.0
2017-Dec-09 04:59N 51°18' E 003°14'0 0.0
2017-Dec-09 04:29N 51°18' E 003°14'0 0.0
2017-Dec-09 03:56N 51°18' E 003°14'0 0.0
2017-Dec-09 03:29N 51°18' E 003°14'0 0.0
2017-Dec-09 02:59N 51°18' E 003°14'0 0.0
2017-Dec-09 02:29N 51°18' E 003°14'0 0.0
2017-Dec-09 01:59N 51°18' E 003°14'0 0.0
2017-Dec-09 01:29N 51°18' E 003°14'0 0.0
2017-Dec-09 00:59N 51°18' E 003°14'0 0.0
2017-Dec-09 00:29N 51°18' E 003°14'0 0.0
2017-Dec-08 23:59N 51°18' E 003°14'0 0.0
2017-Dec-08 23:29N 51°18' E 003°14'0 0.0
2017-Dec-08 22:59N 51°18' E 003°14'0 0.0
2017-Dec-08 22:29N 51°18' E 003°14'0 0.0
2017-Dec-08 21:59N 51°18' E 003°14'0 0.0
2017-Dec-08 21:29N 51°18' E 003°14'0 0.0
2017-Dec-08 20:59N 51°18' E 003°14'0 0.0
2017-Dec-08 20:29N 51°18' E 003°14'0 0.0
2017-Dec-08 19:59N 51°18' E 003°14'0 0.0
2017-Dec-08 19:29N 51°18' E 003°14'0 0.0
2017-Dec-08 18:59N 51°18' E 003°14'0 0.0
2017-Dec-08 18:29N 51°18' E 003°14'0 0.0
2017-Dec-08 17:59N 51°18' E 003°14'0 0.0
2017-Dec-08 17:29N 51°18' E 003°14'0 0.0
2017-Dec-08 16:59N 51°18' E 003°14'0 0.0
2017-Dec-08 16:29N 51°18' E 003°14'0 0.0
2017-Dec-08 15:59N 51°18' E 003°14'0 0.0
2017-Dec-08 15:29N 51°18' E 003°14'0 0.0
2017-Dec-08 14:59N 51°18' E 003°14'0 0.5
2017-Dec-08 14:30N 51°18' E 003°14'0 0.5
2017-Dec-08 13:58N 51°18' E 003°14'0 0.0
2017-Dec-08 13:28N 51°18' E 003°14'0 0.0
2017-Dec-08 12:58N 51°18' E 003°14'0 0.0
2017-Dec-08 12:25N 51°18' E 003°14'0 0.0
2017-Dec-08 11:58N 51°18' E 003°14'0 0.0
2017-Dec-08 11:28N 51°18' E 003°14'0 0.0
2017-Dec-08 10:58N 51°18' E 003°14'0 0.0
2017-Dec-08 10:28N 51°18' E 003°14'0 0.0
2017-Dec-08 09:58N 51°18' E 003°14'0 0.0
2017-Dec-08 09:28N 51°18' E 003°14'0 0.0
2017-Dec-08 08:58N 51°18' E 003°14'0 0.0
2017-Dec-08 08:28N 51°18' E 003°14'0 0.0
2017-Dec-08 07:58N 51°18' E 003°14'0 0.0
2017-Dec-08 07:25N 51°18' E 003°14'0 0.0
2017-Dec-08 06:58N 51°18' E 003°14'0 0.0
2017-Dec-08 06:28N 51°18' E 003°14'0 0.0
2017-Dec-08 05:58N 51°18' E 003°14'0 0.0
2017-Dec-08 05:28N 51°18' E 003°14'0 0.0
2017-Dec-08 04:58N 51°18' E 003°14'0 0.0
2017-Dec-08 04:28N 51°18' E 003°14'0 0.0
2017-Dec-08 03:58N 51°18' E 003°14'0 0.0
2017-Dec-08 03:28N 51°18' E 003°14'0 0.0
2017-Dec-08 02:58N 51°18' E 003°14'0 0.0
2017-Dec-08 02:28N 51°18' E 003°14'0 0.0
2017-Dec-08 01:58N 51°18' E 003°14'0 0.0
2017-Dec-08 01:28N 51°18' E 003°14'0 0.0
2017-Dec-08 00:58N 51°18' E 003°14'0 0.0
2017-Dec-08 00:28N 51°18' E 003°14'0 0.0
2017-Dec-07 23:58N 51°18' E 003°14'0 0.0
2017-Dec-07 23:28N 51°18' E 003°14'0 0.0
2017-Dec-07 22:58N 51°18' E 003°14'0 0.0
2017-Dec-07 22:28N 51°18' E 003°14'0 0.0
2017-Dec-07 21:58N 51°18' E 003°14'0 0.0
2017-Dec-07 21:28N 51°18' E 003°14'0 0.0
2017-Dec-07 20:58N 51°18' E 003°14'0 0.0
2017-Dec-07 20:28N 51°18' E 003°14'0 0.0
2017-Dec-07 19:58N 51°18' E 003°14'0 0.0
2017-Dec-07 19:28N 51°18' E 003°14'0 0.0
2017-Dec-07 18:58N 51°18' E 003°14'0 0.0
2017-Dec-07 18:28N 51°18' E 003°14'0 0.0
2017-Dec-07 17:58N 51°18' E 003°14'0 0.2
2017-Dec-07 17:31N 51°18' E 003°14'2 4.0
2017-Dec-07 16:58N 51°20' E 003°13'0 0.0
2017-Dec-07 16:30N 51°20' E 003°13'2 3.9
2017-Dec-07 16:00N 51°22' E 003°12'611.6
2017-Dec-07 15:31N 51°24' E 003°03'816.7
2017-Dec-07 15:01N 51°22' E 002°51'612.3
2017-Dec-07 14:30N 51°22' E 002°41'510.3
2017-Dec-07 14:00N 51°24' E 002°33'14 9.7
2017-Dec-07 12:33N 51°37' E 002°39'8511.1
2017-Dec-07 04:56N 52°50' E 003°49'512.0
2017-Dec-07 04:30N 52°54' E 003°55'612.6
2017-Dec-07 04:00N 52°58' E 004°02'713.3
2017-Dec-07 03:27N 53°03' E 004°12'3513.5
2017-Dec-07 00:54N 53°31' E 004°46'714.5
2017-Dec-07 00:26N 53°33' E 004°56'  

Dump ship's entire track history